Time;durP1;ratioP1;P1;durP2;ratioP2;P2;SDS_P1;SDS_P2;PMS_P1;PMS_P2;Temp;Humidity;BMP_temperature;BMP_pressure;BME280_temperature;BME280_humidity;BME280_pressure;Samples;Min_cycle;Max_cycle;Signal;HPM_P1;HPM_P2
2022/06/21 00:01:21;;;;;;;;;;;14.40;99.90;;;;;;5107447;28;19924;-73
2022/06/21 00:03:48;;;;;;;;;;;14.30;99.90;;;;;;5049720;27;19996;-73
2022/06/21 00:06:15;;;;;;;;;;;14.30;99.90;;;;;;5102780;28;19927;-73
2022/06/21 00:08:41;;;;;;;;;;;14.20;99.90;;;;;;5107114;28;19924;-74
2022/06/21 00:11:25;;;;;;;;;;;14.10;99.90;;;;;;5100756;28;19928;-73
2022/06/21 00:13:50;;;;;;;;;;;14.00;99.90;;;;;;5106404;28;19934;-73
2022/06/21 00:16:16;;;;;;;;;;;14.00;99.90;;;;;;5048242;28;19928;-73
2022/06/21 00:18:42;;;;;;;;;;;13.90;99.90;;;;;;5109830;28;19930;-73
2022/06/21 00:21:15;;;;;;;;;;;14.00;99.90;;;;;;5111860;28;19924;-73
2022/06/21 00:23:41;;;;;;;;;;;13.90;99.90;;;;;;5042996;28;20014;-73
2022/06/21 00:26:09;;;;;;;;;;;14.00;99.90;;;;;;5111243;28;20401;-73
2022/06/21 00:28:34;;;;;;;;;;;14.00;99.90;;;;;;5041966;28;19968;-73
2022/06/21 00:31:00;;;;;;;;;;;14.00;99.90;;;;;;5108660;28;20376;-73
2022/06/21 00:33:25;;;;;;;;;;;14.00;99.90;;;;;;5110340;28;20022;-74
2022/06/21 00:35:56;;;;;;;;;;;14.10;99.90;;;;;;5111743;28;19932;-73
2022/06/21 00:38:25;;;;;;;;;;;14.10;99.90;;;;;;5091537;28;19932;-73
2022/06/21 00:40:50;;;;;;;;;;;14.00;99.90;;;;;;5058753;28;19969;-73
2022/06/21 00:43:21;;;;;;;;;;;14.00;99.90;;;;;;5026912;28;19967;-74
2022/06/21 00:45:48;;;;;;;;;;;14.00;99.90;;;;;;5053044;28;20379;-73
2022/06/21 00:48:16;;;;;;;;;;;13.90;99.90;;;;;;5009674;28;19969;-73
2022/06/21 00:50:44;;;;;;;;;;;13.80;99.90;;;;;;5010403;28;19933;-73
2022/06/21 00:53:25;;;;;;;;;;;13.80;99.90;;;;;;5014924;28;19932;-73
2022/06/21 00:55:56;;;;;;;;;;;13.70;99.90;;;;;;5010002;28;19926;-73
2022/06/21 00:58:25;;;;;;;;;;;13.70;99.90;;;;;;5009551;28;19947;-73
2022/06/21 01:00:53;;;;;;;;;;;13.70;99.90;;;;;;5008770;28;20362;-73
2022/06/21 01:03:21;;;;;;;;;;;13.60;99.90;;;;;;5052198;28;20438;-73
2022/06/21 01:05:47;;;;;;;;;;;13.60;99.90;;;;;;5108044;28;19993;-73
2022/06/21 01:08:17;;;;;;;;;;;13.50;99.90;;;;;;5109702;28;20373;-73
2022/06/21 01:10:44;;;;;;;;;;;13.40;99.90;;;;;;5100004;28;20343;-74
2022/06/21 01:13:14;;;;;;;;;;;13.40;99.90;;;;;;5007626;28;19976;-74
2022/06/21 01:15:45;;;;;;;;;;;13.40;99.90;;;;;;5022067;28;20013;-73
2022/06/21 01:18:12;;;;;;;;;;;13.30;99.90;;;;;;5091719;28;19923;-73
2022/06/21 01:20:43;;;;;;;;;;;13.30;99.90;;;;;;5107925;28;19984;-73
2022/06/21 01:23:08;;;;;;;;;;;13.30;99.90;;;;;;5107217;28;19924;-73
2022/06/21 01:25:48;;;;;;;;;;;13.20;99.90;;;;;;5107154;28;19931;-73
2022/06/21 01:28:15;;;;;;;;;;;13.20;99.90;;;;;;5108177;28;19931;-73
2022/06/21 01:30:45;;;;;;;;;;;13.10;99.90;;;;;;5052573;27;20018;-73
2022/06/21 01:33:16;;;;;;;;;;;13.10;99.90;;;;;;5106138;28;19923;-73
2022/06/21 01:35:49;;;;;;;;;;;13.00;99.90;;;;;;5033238;28;20433;-73
2022/06/21 01:38:20;;;;;;;;;;;13.00;99.90;;;;;;5088539;28;20294;-73
2022/06/21 01:40:48;;;;;;;;;;;13.00;99.90;;;;;;5107872;28;19934;-73
2022/06/21 01:43:19;;;;;;;;;;;13.00;99.90;;;;;;5104014;28;19965;-73
2022/06/21 01:45:46;;;;;;;;;;;13.00;99.90;;;;;;5066115;28;19929;-73
2022/06/21 01:48:12;;;;;;;;;;;12.90;99.90;;;;;;5094159;28;19967;-73
2022/06/21 01:50:38;;;;;;;;;;;12.90;99.90;;;;;;5110251;28;19973;-73
2022/06/21 01:53:04;;;;;;;;;;;12.80;99.90;;;;;;5040852;28;20312;-73
2022/06/21 01:55:34;;;;;;;;;;;12.80;99.90;;;;;;5110239;28;19947;-73
2022/06/21 01:58:00;;;;;;;;;;;12.80;99.90;;;;;;5085752;27;19925;-73
2022/06/21 02:00:27;;;;;;;;;;;12.80;99.90;;;;;;5007805;28;20284;-73
2022/06/21 02:02:55;;;;;;;;;;;12.80;99.90;;;;;;5008718;28;19930;-73
2022/06/21 02:05:35;;;;;;;;;;;12.80;99.90;;;;;;5008056;28;19933;-73
2022/06/21 02:08:05;;;;;;;;;;;12.80;99.90;;;;;;4996761;28;20008;-73
2022/06/21 02:10:33;;;;;;;;;;;12.70;99.90;;;;;;5009518;28;19930;-73
2022/06/21 02:13:05;;;;;;;;;;;12.70;99.90;;;;;;5007218;28;19926;-73
2022/06/21 02:15:45;;;;;;;;;;;12.80;99.90;;;;;;5009104;28;20507;-73
2022/06/21 02:18:12;;;;;;;;;;;12.70;99.90;;;;;;5006552;28;19976;-73
2022/06/21 02:20:56;;;;;;;;;;;12.70;99.90;;;;;;5026380;28;20457;-73
2022/06/21 02:23:22;;;;;;;;;;;12.70;99.90;;;;;;5109125;28;20397;-73
2022/06/21 02:25:51;;;;;;;;;;;12.70;99.90;;;;;;5108751;28;19923;-73
2022/06/21 02:28:18;;;;;;;;;;;12.60;99.90;;;;;;5107883;28;19924;-73
2022/06/21 02:30:44;;;;;;;;;;;12.60;99.90;;;;;;4987423;28;19926;-73
2022/06/21 02:33:15;;;;;;;;;;;12.50;99.90;;;;;;5052407;28;19998;-73
2022/06/21 02:35:47;;;;;;;;;;;12.50;99.90;;;;;;5024074;28;19933;-73
2022/06/21 02:38:17;;;;;;;;;;;12.50;99.90;;;;;;5030523;28;19926;-73
2022/06/21 02:40:45;;;;;;;;;;;12.50;99.90;;;;;;5009588;28;19929;-73
2022/06/21 02:43:18;;;;;;;;;;;12.40;99.90;;;;;;5051660;28;19924;-73
2022/06/21 02:45:47;;;;;;;;;;;12.40;99.90;;;;;;5073802;28;19926;-73
2022/06/21 02:48:17;;;;;;;;;;;12.40;99.90;;;;;;5077870;28;20007;-74
2022/06/21 02:50:45;;;;;;;;;;;12.30;99.90;;;;;;5052428;28;19928;-73
2022/06/21 02:53:22;;;;;;;;;;;12.30;99.90;;;;;;5111552;28;19924;-73
2022/06/21 02:55:54;;;;;;;;;;;12.30;99.90;;;;;;5042688;28;20006;-73
2022/06/21 02:58:24;;;;;;;;;;;12.30;99.90;;;;;;5061549;28;19965;-74
2022/06/21 03:00:50;;;;;;;;;;;12.20;99.90;;;;;;5010088;28;19967;-73
2022/06/21 03:03:19;;;;;;;;;;;12.20;99.90;;;;;;5032086;28;19926;-73
2022/06/21 03:05:45;;;;;;;;;;;12.20;99.90;;;;;;5008702;28;19976;-73
2022/06/21 03:08:11;;;;;;;;;;;12.10;99.90;;;;;;5028351;28;19924;-73
2022/06/21 03:10:41;;;;;;;;;;;12.10;99.90;;;;;;5012768;27;19926;-73
2022/06/21 03:13:10;;;;;;;;;;;12.10;99.90;;;;;;5008443;28;19925;-73
2022/06/21 03:15:36;;;;;;;;;;;12.10;99.90;;;;;;5009563;28;19926;-73
2022/06/21 03:18:13;;;;;;;;;;;12.10;99.90;;;;;;5009800;28;19986;-73
2022/06/21 03:20:39;;;;;;;;;;;12.10;99.90;;;;;;5010437;28;19925;-74
2022/06/21 03:23:05;;;;;;;;;;;12.00;99.90;;;;;;5005390;28;20328;-73
2022/06/21 03:25:37;;;;;;;;;;;12.00;99.90;;;;;;5009011;28;19925;-73
2022/06/21 03:28:19;;;;;;;;;;;11.90;99.90;;;;;;5077605;28;19968;-73
2022/06/21 03:30:45;;;;;;;;;;;11.90;99.90;;;;;;5060735;28;19931;-75
2022/06/21 03:33:11;;;;;;;;;;;11.90;99.90;;;;;;5008180;28;20562;-74
2022/06/21 03:35:36;;;;;;;;;;;11.80;99.90;;;;;;5009707;28;20020;-74
2022/06/21 03:38:03;;;;;;;;;;;11.80;99.90;;;;;;5077842;28;19931;-74
2022/06/21 03:43:16;;;;;;;;;;;11.80;99.90;;;;;;5008703;28;19925;-73
2022/06/21 03:45:43;;;;;;;;;;;11.80;99.90;;;;;;5010174;28;19926;-74
2022/06/21 03:48:18;;;;;;;;;;;11.80;99.90;;;;;;4992411;28;20295;-74
2022/06/21 03:50:46;;;;;;;;;;;11.80;99.90;;;;;;5074000;28;19970;-73
2022/06/21 03:53:17;;;;;;;;;;;11.80;99.90;;;;;;5109325;28;19931;-74
2022/06/21 03:55:55;;;;;;;;;;;11.80;99.90;;;;;;5108500;27;20397;-74
2022/06/21 03:58:28;;;;;;;;;;;11.90;99.90;;;;;;5109452;28;20331;-74
2022/06/21 04:01:00;;;;;;;;;;;11.90;99.90;;;;;;5108817;28;19935;-74
2022/06/21 04:03:31;;;;;;;;;;;12.00;99.90;;;;;;5111368;28;19927;-74
2022/06/21 04:06:10;;;;;;;;;;;12.00;99.90;;;;;;5037674;28;20016;-74
2022/06/21 04:08:39;;;;;;;;;;;12.10;99.90;;;;;;5106361;28;20412;-74
2022/06/21 04:11:13;;;;;;;;;;;12.10;99.90;;;;;;5082547;28;19925;-74
2022/06/21 04:13:38;;;;;;;;;;;12.20;99.90;;;;;;5009215;28;19932;-74
2022/06/21 04:16:07;;;;;;;;;;;12.20;99.90;;;;;;5030053;28;19926;-73
2022/06/21 04:18:33;;;;;;;;;;;12.20;99.90;;;;;;5102396;28;21217;-73
2022/06/21 04:21:09;;;;;;;;;;;12.30;99.90;;;;;;5041444;28;19970;-74
2022/06/21 04:23:34;;;;;;;;;;;12.30;99.90;;;;;;5111160;28;19931;-73
2022/06/21 04:26:20;;;;;;;;;;;12.40;99.90;;;;;;5106035;28;19924;-73
2022/06/21 04:28:55;;;;;;;;;;;12.50;99.90;;;;;;5056241;28;20407;-74
2022/06/21 04:31:21;;;;;;;;;;;12.60;99.90;;;;;;5009834;28;19926;-74
2022/06/21 04:33:52;;;;;;;;;;;12.70;99.90;;;;;;5008836;28;19926;-74
2022/06/21 04:36:27;;;;;;;;;;;12.70;99.90;;;;;;5009706;28;19925;-74
2022/06/21 04:38:59;;;;;;;;;;;12.80;99.90;;;;;;5008229;28;19929;-74
2022/06/21 04:41:38;;;;;;;;;;;12.80;99.90;;;;;;5109304;28;20048;-74
2022/06/21 04:44:09;;;;;;;;;;;13.00;99.90;;;;;;5107563;28;19924;-74
2022/06/21 04:46:38;;;;;;;;;;;13.10;99.90;;;;;;5026886;28;19987;-74
2022/06/21 04:49:08;;;;;;;;;;;13.20;99.90;;;;;;5008085;28;19926;-73
2022/06/21 04:51:37;;;;;;;;;;;13.30;99.90;;;;;;5009627;28;19926;-74
2022/06/21 04:54:05;;;;;;;;;;;13.30;99.90;;;;;;5008706;28;19925;-74
2022/06/21 04:56:47;;;;;;;;;;;13.40;99.90;;;;;;5009968;28;20379;-74
2022/06/21 04:59:39;;;;;;;;;;;13.40;99.90;;;;;;5076636;28;19938;-74
2022/06/21 05:02:09;;;;;;;;;;;13.50;99.90;;;;;;5011824;28;19972;-74
2022/06/21 05:04:36;;;;;;;;;;;13.60;99.90;;;;;;5009318;28;19933;-74
2022/06/21 05:07:04;;;;;;;;;;;13.70;99.90;;;;;;5008712;28;19933;-74
2022/06/21 05:09:30;;;;;;;;;;;13.70;99.90;;;;;;5011906;28;19926;-74
2022/06/21 05:12:16;;;;;;;;;;;13.80;99.90;;;;;;5011448;28;20021;-74
2022/06/21 05:14:45;;;;;;;;;;;13.90;99.90;;;;;;5023260;28;19955;-74
2022/06/21 05:17:14;;;;;;;;;;;14.00;99.90;;;;;;5009711;28;19929;-74
2022/06/21 05:19:43;;;;;;;;;;;14.00;99.90;;;;;;5018997;28;20403;-74
2022/06/21 05:22:16;;;;;;;;;;;14.10;99.90;;;;;;5008091;28;20311;-74
2022/06/21 05:24:42;;;;;;;;;;;14.20;99.90;;;;;;5007781;28;20014;-74
2022/06/21 05:27:28;;;;;;;;;;;14.20;99.90;;;;;;5085476;28;20057;-74
2022/06/21 05:29:53;;;;;;;;;;;14.30;99.90;;;;;;5041477;28;19923;-74
2022/06/21 05:32:26;;;;;;;;;;;14.40;99.90;;;;;;5109822;28;19923;-74
2022/06/21 05:34:57;;;;;;;;;;;14.40;99.90;;;;;;5032467;28;19928;-73
2022/06/21 05:37:34;;;;;;;;;;;14.50;99.90;;;;;;5036696;28;19999;-74
2022/06/21 05:40:02;;;;;;;;;;;14.50;99.90;;;;;;5076044;28;19925;-74
2022/06/21 05:42:28;;;;;;;;;;;14.60;99.90;;;;;;5008094;28;19932;-73
2022/06/21 05:45:14;;;;;;;;;;;14.60;99.90;;;;;;5106958;28;20025;-74
2022/06/21 05:47:45;;;;;;;;;;;14.60;99.90;;;;;;5107494;28;20022;-73
2022/06/21 05:50:13;;;;;;;;;;;14.60;99.90;;;;;;5108459;28;19931;-72
2022/06/21 05:52:44;;;;;;;;;;;14.70;99.90;;;;;;5032143;28;19931;-72
2022/06/21 05:55:09;;;;;;;;;;;14.70;99.90;;;;;;5075186;28;19934;-73
2022/06/21 05:57:58;;;;;;;;;;;14.70;99.90;;;;;;5007800;28;19970;-73
2022/06/21 06:00:27;;;;;;;;;;;14.80;99.90;;;;;;5008700;28;19929;-73
2022/06/21 06:02:54;;;;;;;;;;;14.80;99.90;;;;;;5010884;28;20073;-73
2022/06/21 06:05:24;;;;;;;;;;;14.80;99.90;;;;;;5007130;28;19949;-73
2022/06/21 06:07:53;;;;;;;;;;;14.80;99.90;;;;;;5008865;28;20272;-73
2022/06/21 06:10:20;;;;;;;;;;;14.80;99.90;;;;;;5007917;28;20379;-74
2022/06/21 06:12:48;;;;;;;;;;;14.90;99.90;;;;;;5011938;28;19988;-74
2022/06/21 06:15:20;;;;;;;;;;;15.10;99.90;;;;;;5010314;28;19934;-73
2022/06/21 06:17:52;;;;;;;;;;;15.10;99.90;;;;;;5014087;28;19934;-73
2022/06/21 06:20:21;;;;;;;;;;;15.10;99.90;;;;;;5010411;28;19926;-73
2022/06/21 06:22:56;;;;;;;;;;;15.10;99.90;;;;;;5012862;28;20335;-74
2022/06/21 06:25:25;;;;;;;;;;;15.10;99.90;;;;;;5012461;28;19934;-73
2022/06/21 06:27:57;;;;;;;;;;;15.00;99.90;;;;;;5012374;28;19925;-74
2022/06/21 06:30:31;;;;;;;;;;;15.00;99.90;;;;;;5071283;28;20040;-73
2022/06/21 06:33:16;;;;;;;;;;;15.10;99.90;;;;;;4994733;28;20368;-73
2022/06/21 06:35:43;;;;;;;;;;;15.10;99.90;;;;;;5008071;28;19932;-73
2022/06/21 06:38:12;;;;;;;;;;;15.20;99.90;;;;;;5007881;28;19932;-73
2022/06/21 06:40:41;;;;;;;;;;;15.30;99.90;;;;;;5008309;28;19925;-73
2022/06/21 06:43:11;;;;;;;;;;;15.40;99.90;;;;;;5006112;28;19933;-73
2022/06/21 06:45:40;;;;;;;;;;;15.50;99.90;;;;;;5007492;28;20272;-74
2022/06/21 06:48:11;;;;;;;;;;;15.50;99.90;;;;;;5006332;28;19925;-74
2022/06/21 06:50:40;;;;;;;;;;;15.50;99.90;;;;;;5009415;28;19945;-74
2022/06/21 06:53:17;;;;;;;;;;;15.50;99.90;;;;;;5007323;28;19926;-73
2022/06/21 06:55:56;;;;;;;;;;;15.40;99.90;;;;;;4974860;28;19930;-74
2022/06/21 06:58:30;;;;;;;;;;;15.40;99.90;;;;;;5007680;28;19924;-73
2022/06/21 07:01:07;;;;;;;;;;;15.60;99.90;;;;;;5009330;28;20470;-73
2022/06/21 07:03:49;;;;;;;;;;;15.80;99.90;;;;;;5014989;28;19972;-74
2022/06/21 07:06:15;;;;;;;;;;;16.00;99.90;;;;;;5013262;28;19931;-73
2022/06/21 07:08:59;;;;;;;;;;;16.10;99.90;;;;;;5010796;28;19930;-74
2022/06/21 07:11:29;;;;;;;;;;;16.10;99.90;;;;;;5013403;28;19931;-74
2022/06/21 07:13:56;;;;;;;;;;;16.10;99.90;;;;;;5009140;28;19971;-73
2022/06/21 07:16:23;;;;;;;;;;;16.10;99.90;;;;;;5015103;28;19988;-73
2022/06/21 07:18:50;;;;;;;;;;;15.90;99.90;;;;;;5009496;28;19926;-73
2022/06/21 07:21:16;;;;;;;;;;;15.90;99.90;;;;;;5016532;28;19964;-74
2022/06/21 07:23:43;;;;;;;;;;;15.90;99.90;;;;;;5014557;28;19933;-74
2022/06/21 07:26:15;;;;;;;;;;;16.00;99.90;;;;;;5022496;28;19983;-74
2022/06/21 07:28:48;;;;;;;;;;;16.20;99.90;;;;;;5111458;28;19931;-74
2022/06/21 07:31:14;;;;;;;;;;;16.40;99.90;;;;;;5089193;28;19927;-73
2022/06/21 07:33:46;;;;;;;;;;;16.50;99.90;;;;;;5110555;28;19924;-74
2022/06/21 07:36:18;;;;;;;;;;;16.40;99.90;;;;;;5112929;28;19924;-74
2022/06/21 07:38:48;;;;;;;;;;;16.30;99.90;;;;;;4996868;28;20406;-74
2022/06/21 07:41:13;;;;;;;;;;;16.30;99.90;;;;;;5016862;28;19933;-73
2022/06/21 07:43:46;;;;;;;;;;;16.30;99.90;;;;;;5112466;28;19931;-74
2022/06/21 07:46:14;;;;;;;;;;;16.30;99.90;;;;;;5048561;28;19926;-74
2022/06/21 07:48:42;;;;;;;;;;;16.40;99.90;;;;;;5010965;28;19980;-74
2022/06/21 07:51:18;;;;;;;;;;;16.50;99.90;;;;;;5076960;28;19924;-73
2022/06/21 07:53:44;;;;;;;;;;;16.60;99.90;;;;;;4997571;28;19940;-74
2022/06/21 07:56:18;;;;;;;;;;;16.80;99.90;;;;;;5011902;28;19926;-74
2022/06/21 07:58:43;;;;;;;;;;;16.80;99.90;;;;;;5009409;28;19929;-73
2022/06/21 08:07:03;;;;;;;;;;;16.60;99.90;;;;;;5011512;28;19925;-73
2022/06/21 08:09:32;;;;;;;;;;;16.70;99.90;;;;;;5010907;28;19991;-74
2022/06/21 08:12:00;;;;;;;;;;;16.90;99.90;;;;;;5012832;28;20051;-74
2022/06/21 08:14:28;;;;;;;;;;;17.00;99.90;;;;;;5011545;28;20006;-74
2022/06/21 08:16:59;;;;;;;;;;;17.10;99.90;;;;;;5009889;28;19932;-74
2022/06/21 08:19:38;;;;;;;;;;;17.10;99.90;;;;;;5009867;28;20299;-75
2022/06/21 08:22:09;;;;;;;;;;;17.00;99.90;;;;;;5010742;28;19926;-74
2022/06/21 08:24:42;;;;;;;;;;;17.00;99.90;;;;;;5013577;28;19926;-73
2022/06/21 08:27:08;;;;;;;;;;;17.10;99.90;;;;;;4992453;28;19925;-74
2022/06/21 08:29:46;;;;;;;;;;;17.10;99.90;;;;;;5009199;28;19932;-74
2022/06/21 08:32:20;;;;;;;;;;;17.30;99.90;;;;;;5060160;28;19946;-74
2022/06/21 08:34:47;;;;;;;;;;;17.30;99.90;;;;;;5108441;28;20408;-74
2022/06/21 08:37:15;;;;;;;;;;;17.40;99.90;;;;;;5111321;28;20302;-73
2022/06/21 08:39:45;;;;;;;;;;;17.50;99.90;;;;;;5107257;28;19977;-73
2022/06/21 08:42:10;;;;;;;;;;;17.70;99.90;;;;;;5109049;28;20074;-74
2022/06/21 08:44:39;;;;;;;;;;;17.80;99.90;;;;;;5108521;28;20394;-73
2022/06/21 08:47:10;;;;;;;;;;;17.90;99.90;;;;;;5109603;28;19971;-73
2022/06/21 08:49:41;;;;;;;;;;;18.10;99.90;;;;;;5079084;28;19930;-74
2022/06/21 08:52:25;;;;;;;;;;;18.20;99.90;;;;;;5008961;28;19925;-74
2022/06/21 08:54:54;;;;;;;;;;;18.30;99.90;;;;;;4999168;28;20408;-74
2022/06/21 08:57:34;;;;;;;;;;;18.50;99.90;;;;;;5009776;28;19940;-73
2022/06/21 09:00:00;;;;;;;;;;;18.70;99.90;;;;;;5008873;28;19933;-74
2022/06/21 09:02:34;;;;;;;;;;;18.80;99.90;;;;;;5010327;28;20299;-74
2022/06/21 09:05:19;;;;;;;;;;;18.90;99.90;;;;;;5008574;28;19999;-73
2022/06/21 09:08:07;;;;;;;;;;;19.20;99.90;;;;;;4997260;28;19932;-74
2022/06/21 09:10:59;;;;;;;;;;;19.20;99.90;;;;;;5006434;28;19925;-73
2022/06/21 09:13:43;;;;;;;;;;;19.20;99.50;;;;;;5101380;28;19923;-73
2022/06/21 09:16:27;;;;;;;;;;;19.10;99.80;;;;;;5051772;28;20014;-73
2022/06/21 09:19:11;;;;;;;;;;;19.00;99.70;;;;;;4994346;28;20475;-74
2022/06/21 09:21:40;;;;;;;;;;;18.80;99.50;;;;;;5089139;28;19933;-74
2022/06/21 09:24:11;;;;;;;;;;;18.70;99.70;;;;;;5060829;28;19926;-73
2022/06/21 09:26:49;;;;;;;;;;;18.50;99.30;;;;;;5075990;28;19929;-73
2022/06/21 09:29:29;;;;;;;;;;;18.50;99.60;;;;;;5052653;28;19924;-74
2022/06/21 09:31:58;;;;;;;;;;;18.70;98.60;;;;;;5033949;28;20317;-74
2022/06/21 09:34:31;;;;;;;;;;;19.10;99.40;;;;;;5039648;28;19929;-74
2022/06/21 09:37:02;;;;;;;;;;;19.70;99.20;;;;;;5066789;28;19925;-74
2022/06/21 09:39:39;;;;;;;;;;;20.10;98.60;;;;;;5078359;28;20014;-74
2022/06/21 09:42:32;;;;;;;4.18;1.40;;;20.20;96.70;;;;;;5070512;28;19969;-74
2022/06/21 09:45:08;;;;;;;;;;;20.30;97.20;;;;;;5035945;28;20073;-74
2022/06/21 09:47:49;;;;;;;;;;;20.60;97.30;;;;;;5107393;28;19937;-74
2022/06/21 09:50:15;;;;;;;;;;;20.70;95.90;;;;;;5052188;28;20387;-74
2022/06/21 09:52:59;;;;;;;;;;;20.90;95.60;;;;;;5008527;28;19928;-74
2022/06/21 09:55:31;;;;;;;;;;;21.30;95.60;;;;;;5008198;28;20403;-74
2022/06/21 09:58:02;;;;;;;;;;;21.70;94.50;;;;;;5045561;28;19919;-74
2022/06/21 10:00:56;;;;;;;3.58;1.02;;;22.00;93.30;;;;;;5106539;28;19923;-74
2022/06/21 10:03:33;;;;;;;3.83;1.35;;;22.40;93.10;;;;;;5106063;28;20413;-74
2022/06/21 10:06:11;;;;;;;2.67;1.25;;;22.70;92.60;;;;;;5106403;28;20488;-74
2022/06/21 10:09:01;;;;;;;4.20;1.40;;;22.90;91.50;;;;;;5095665;28;20404;-74
2022/06/21 10:11:56;;;;;;;4.70;1.52;;;23.00;90.80;;;;;;5065078;28;20412;-74
2022/06/21 10:14:51;;;;;;;4.05;1.40;;;23.00;91.40;;;;;;5106884;28;20405;-74
2022/06/21 10:17:35;;;;;;;3.50;1.30;;;22.60;90.50;;;;;;5094403;28;20411;-74
2022/06/21 10:20:16;;;;;;;4.43;1.63;;;22.20;90.90;;;;;;5050085;28;20416;-74
2022/06/21 10:22:56;;;;;;;3.78;1.25;;;22.10;90.40;;;;;;5106606;28;20405;-74
2022/06/21 10:25:37;;;;;;;4.75;1.30;;;22.10;89.20;;;;;;5087098;28;20459;-75
2022/06/21 10:28:18;;;;;;;4.40;1.27;;;22.30;90.00;;;;;;5105118;28;20929;-74
2022/06/21 10:30:49;;;;;;;4.78;1.60;;;22.70;91.10;;;;;;5106580;28;20404;-71
2022/06/21 10:33:24;;;;;;;3.17;1.30;;;22.90;90.40;;;;;;5104311;28;20415;-72
2022/06/21 10:36:46;;;;;;;5.90;1.80;;;22.70;90.10;;;;;;5108179;28;20480;-71
2022/06/21 10:39:17;;;;;;;4.85;1.70;;;22.50;89.30;;;;;;5052129;28;20413;-72
2022/06/21 10:45:09;;;;;;;5.82;1.85;;;21.90;89.80;;;;;;5100278;28;20408;-71
2022/06/21 10:48:09;;;;;;;5.68;2.20;;;21.70;90.20;;;;;;5082874;28;20429;-71
2022/06/21 10:51:02;;;;;;;5.63;1.83;;;21.60;90.00;;;;;;5103059;28;20412;-72
2022/06/21 10:53:55;;;;;;;6.50;2.08;;;21.50;90.30;;;;;;5104309;28;20404;-72
2022/06/21 11:03:02;;;;;;;5.60;2.15;;;21.60;90.00;;;;;;5039665;28;20411;-72
2022/06/21 11:05:48;;;;;;;5.33;2.50;;;22.00;89.50;;;;;;5104558;28;20423;-72
2022/06/21 11:08:26;;;;;;;5.00;2.30;;;22.00;88.30;;;;;;5106021;28;20409;-72
2022/06/21 11:11:29;;;;;;;4.85;2.30;;;22.00;89.10;;;;;;5032133;28;20408;-71
2022/06/21 11:14:13;;;;;;;3.90;2.13;;;22.30;89.10;;;;;;5103934;28;20491;-74
2022/06/21 11:17:18;;;;;;;4.05;1.98;;;22.80;87.70;;;;;;5084484;28;20416;-74
2022/06/21 11:20:11;;;;;;;4.60;2.00;;;23.40;87.20;;;;;;5103558;28;20434;-74
2022/06/21 11:23:12;;;;;;;4.93;1.70;;;23.90;88.00;;;;;;5052866;28;20910;-74
2022/06/21 11:25:58;;;;;;;4.78;1.70;;;24.30;82.30;;;;;;5038447;28;20480;-74
2022/06/21 11:28:34;;;;;;;4.95;1.60;;;24.70;81.70;;;;;;5050420;28;20542;-72
2022/06/21 11:31:02;;;;;;;4.03;1.63;;;25.10;80.10;;;;;;5105102;28;20954;-72
2022/06/21 11:33:37;;;;;;;4.45;1.52;;;25.30;77.70;;;;;;5024491;28;20419;-72
2022/06/21 11:36:17;;;;;;;4.43;1.88;;;25.50;76.90;;;;;;5105318;28;20991;-72
2022/06/21 11:39:06;;;;;;;3.28;1.38;;;25.70;75.70;;;;;;5109501;28;20475;-72
2022/06/21 11:42:06;;;;;;;4.00;1.50;;;25.70;74.20;;;;;;5080717;28;20479;-72
2022/06/21 11:44:44;;;;;;;4.15;1.80;;;26.00;73.70;;;;;;4999488;28;20417;-72
2022/06/21 11:47:31;;;;;;;3.97;1.50;;;26.10;74.10;;;;;;5007698;28;20781;-73
2022/06/21 11:50:02;;;;;;;4.00;1.50;;;26.10;72.30;;;;;;4990714;28;20842;-72
2022/06/21 11:53:00;;;;;;;3.10;1.45;;;26.20;75.70;;;;;;5008077;28;20443;-72
2022/06/21 11:55:39;;;;;;;4.38;1.40;;;26.40;71.10;;;;;;5040698;28;20436;-72
2022/06/21 11:58:52;;;;;;;3.75;1.45;;;26.60;71.10;;;;;;5105723;28;20419;-72
2022/06/21 12:01:42;;;;;;;3.37;1.20;;;26.90;71.80;;;;;;5059418;28;20427;-72
2022/06/21 12:04:26;;;;;;;3.85;1.27;;;27.20;69.20;;;;;;4997429;28;20500;-72
2022/06/21 12:06:54;;;;;;;4.32;1.25;;;27.40;66.60;;;;;;5018672;28;20597;-72
2022/06/21 12:09:38;;;;;;;4.40;1.23;;;27.40;64.80;;;;;;5006910;28;20436;-72
2022/06/21 12:12:34;;;;;;;2.88;1.10;;;27.40;66.00;;;;;;5009394;28;20417;-72
2022/06/21 12:15:18;;;;;;;3.77;1.10;;;27.20;66.70;;;;;;5012134;28;20413;-72
2022/06/21 12:17:56;;;;;;;4.20;1.20;;;27.10;64.80;;;;;;4996412;28;20449;-72
2022/06/21 12:20:29;;;;;;;3.20;1.05;;;27.00;63.00;;;;;;5092346;28;20428;-72
2022/06/21 12:23:18;;;;;;;4.45;1.25;;;27.10;63.70;;;;;;5109428;28;20400;-72
2022/06/21 12:25:46;;;;;;;3.80;1.60;;;27.50;65.00;;;;;;4996385;28;20420;-72
2022/06/21 12:28:15;;;;;;;4.57;1.30;;;27.70;67.50;;;;;;5009143;28;20504;-72
2022/06/21 12:30:41;;;;;;;5.68;1.42;;;28.00;66.00;;;;;;5006613;28;20420;-72
2022/06/21 12:33:11;;;;;;;3.53;1.30;;;28.20;67.20;;;;;;5007948;28;20413;-72
2022/06/21 12:36:08;;;;;;;4.38;1.42;;;28.20;66.60;;;;;;4989291;28;20417;-72
2022/06/21 12:38:38;;;;;;;3.42;1.38;;;28.30;66.10;;;;;;5098599;28;20455;-72
2022/06/21 12:41:26;;;;;;;4.55;1.70;;;27.80;66.10;;;;;;5107057;28;20422;-72
2022/06/21 12:44:13;;;;;;;3.70;1.30;;;27.60;66.50;;;;;;5108696;28;20408;-72
2022/06/21 12:46:52;;;;;;;4.23;1.77;;;27.50;68.50;;;;;;5108035;28;20424;-72
2022/06/21 12:49:36;;;;;;;5.93;2.35;;;27.60;66.90;;;;;;5049598;28;20810;-72
2022/06/21 12:52:23;;;;;;;5.13;1.67;;;27.70;65.70;;;;;;5066272;28;20412;-72
2022/06/21 12:55:03;;;;;;;3.67;1.53;;;27.80;65.80;;;;;;5106517;28;20416;-72
2022/06/21 12:57:46;;;;;;;5.50;1.87;;;27.90;64.70;;;;;;5107551;28;20408;-72
2022/06/21 13:00:23;;;;;;;4.25;1.70;;;27.90;64.60;;;;;;5105817;28;20473;-72
2022/06/21 13:03:19;;;;;;;4.53;1.70;;;27.80;65.10;;;;;;5103541;28;20414;-72
2022/06/21 13:05:59;;;;;;;5.00;1.50;;;27.60;65.30;;;;;;5100733;28;20829;-72
2022/06/21 13:08:59;;;;;;;4.85;1.90;;;27.60;65.30;;;;;;5103867;28;20481;-72
2022/06/21 13:11:43;;;;;;;4.32;1.50;;;27.60;66.30;;;;;;5101750;28;20758;-72
2022/06/21 13:14:11;;;;;;;3.75;1.70;;;27.80;65.40;;;;;;5073780;28;20507;-72
2022/06/21 13:16:44;;;;;;;7.43;1.70;;;28.00;64.60;;;;;;5072996;28;20408;-72
2022/06/21 13:19:31;;;;;;;4.35;1.40;;;28.00;64.70;;;;;;5096850;28;20407;-71
2022/06/21 13:22:33;;;;;;;4.75;1.48;;;28.00;64.70;;;;;;5096557;28;20508;-72
2022/06/21 13:25:34;;;;;;;4.03;1.40;;;28.00;64.70;;;;;;5093525;28;20412;-72
2022/06/21 13:28:17;;;;;;;5.00;1.60;;;27.80;61.50;;;;;;5052127;28;20402;-72
2022/06/21 13:31:02;;;;;;;6.38;1.80;;;27.60;63.90;;;;;;5029802;28;20413;-72
2022/06/21 13:33:32;;;;;;;6.00;1.60;;;27.60;63.70;;;;;;5080303;28;20461;-72
2022/06/21 13:36:18;;;;;;;3.80;1.63;;;27.60;63.60;;;;;;5104478;28;20408;-72
2022/06/21 13:38:55;;;;;;;4.85;1.80;;;27.70;63.60;;;;;;5029903;28;20396;-72
2022/06/21 13:44:33;;;;;;;3.17;1.58;;;28.00;62.90;;;;;;5103583;28;20415;-72
2022/06/21 13:47:15;;;;;;;4.00;1.65;;;28.10;63.50;;;;;;5102897;28;20436;-72
2022/06/21 13:49:47;;;;;;;3.72;1.45;;;28.10;63.10;;;;;;5078186;28;20427;-72
2022/06/21 13:52:27;;;;;;;5.60;1.60;;;27.90;63.90;;;;;;5062971;28;20434;-72
2022/06/21 13:54:59;;;;;;;5.95;1.58;;;27.80;63.70;;;;;;5107001;28;20416;-72
2022/06/21 13:57:56;;;;;;;5.88;1.30;;;27.90;64.20;;;;;;5037132;28;20417;-72
2022/06/21 14:00:35;;;;;;;4.97;1.70;;;27.90;64.10;;;;;;5064287;28;20404;-72
2022/06/21 14:03:37;;;;;;;4.45;1.60;;;27.60;63.10;;;;;;5027030;28;20434;-72
2022/06/21 14:06:23;;;;;;;5.07;1.52;;;27.20;63.60;;;;;;5038019;28;20443;-72
2022/06/21 14:09:13;;;;;;;3.88;1.70;;;27.20;63.50;;;;;;5035246;28;20413;-72
2022/06/21 14:11:47;;;;;;;4.45;1.50;;;27.20;63.40;;;;;;5006505;28;20405;-72
2022/06/21 14:14:21;;;;;;;4.17;1.50;;;27.00;63.80;;;;;;5101135;28;20462;-72
2022/06/21 14:17:07;;;;;;;4.50;1.35;;;26.70;64.40;;;;;;5040542;28;20424;-72
2022/06/21 14:20:07;;;;;;;4.35;1.63;;;26.50;65.30;;;;;;4995890;28;20433;-72
2022/06/21 14:22:53;;;;;;;4.63;1.27;;;26.40;64.90;;;;;;4993643;28;20401;-72
2022/06/21 14:25:42;;;;;;;4.75;1.80;;;26.30;65.80;;;;;;5007364;28;20982;-71
2022/06/21 14:28:19;;;;;;;6.15;1.42;;;26.30;65.40;;;;;;5007583;28;20554;-72
2022/06/21 14:30:48;;;;;;;5.65;1.35;;;26.30;65.80;;;;;;4995010;28;20775;-72
2022/06/21 14:33:31;;;;;;;4.80;1.38;;;26.40;66.00;;;;;;5005681;28;20740;-72
2022/06/21 14:36:07;;;;;;;6.13;1.92;;;26.50;65.30;;;;;;5003646;28;20417;-71
2022/06/21 14:38:56;;;;;;;4.90;1.63;;;26.50;65.40;;;;;;5078196;28;20415;-72
2022/06/21 14:41:35;;;;;;;4.38;1.40;;;26.40;65.20;;;;;;5009436;28;20409;-71
2022/06/21 14:44:23;;;;;;;3.03;1.30;;;26.30;65.40;;;;;;4987694;28;20819;-72
2022/06/21 14:47:00;;;;;;;5.75;1.60;;;26.00;65.20;;;;;;5005201;28;20508;-72
2022/06/21 14:49:38;;;;;;;4.18;1.75;;;25.80;65.50;;;;;;5009644;28;20504;-72
2022/06/21 14:52:12;;;;;;;4.03;1.85;;;25.80;65.90;;;;;;5005781;28;20758;-72